Time;durP1;ratioP1;P1;durP2;ratioP2;P2;SDS_P1;SDS_P2;PMS_P1;PMS_P2;Temp;Humidity;BMP_temperature;BMP_pressure;BME280_temperature;BME280_humidity;BME280_pressure;Samples;Min_cycle;Max_cycle;Signal;HPM_P1;HPM_P2
2021/06/09 00:02:02;;;;;;;26.60;9.50;;;;;;;;;;5108884;28;20076;-67
2021/06/09 00:04:28;;;;;;;17.67;10.18;;;;;;;;;;5097776;28;20043;-67
2021/06/09 00:06:53;;;;;;;21.85;10.60;;;;;;;;;;5108942;28;20024;-66
2021/06/09 00:09:18;;;;;;;19.42;9.63;;;;;;;;;;5102708;28;20024;-66
2021/06/09 00:11:44;;;;;;;19.52;10.18;;;;;;;;;;5114258;28;20028;-68
2021/06/09 00:14:09;;;;;;;17.90;9.95;;;;;;;;;;5114118;28;20112;-67
2021/06/09 00:16:35;;;;;;;23.50;10.52;;;;;;;;;;5113441;28;20026;-67
2021/06/09 00:19:00;;;;;;;18.08;10.10;;;;;;;;;;5114142;28;20081;-67
2021/06/09 00:21:25;;;;;;;31.38;11.27;;;;;;;;;;5113802;28;20491;-66
2021/06/09 00:23:51;;;;;;;20.83;10.02;;;;;;;;;;5114068;28;20436;-65
2021/06/09 00:26:18;;;;;;;19.27;10.48;;;;;;;;;;5095334;28;20039;-64
2021/06/09 00:28:45;;;;;;;21.00;12.10;;;;;;;;;;5113816;28;20024;-64
2021/06/09 00:31:11;;;;;;;22.48;10.65;;;;;;;;;;5113949;28;20113;-66
2021/06/09 00:33:36;;;;;;;22.45;11.30;;;;;;;;;;5114280;28;20059;-66
2021/06/09 00:36:01;;;;;;;21.05;11.38;;;;;;;;;;5113695;28;20429;-66
2021/06/09 00:38:27;;;;;;;28.67;11.70;;;;;;;;;;5113992;28;20043;-66
2021/06/09 00:40:53;;;;;;;28.80;12.07;;;;;;;;;;5095132;28;20456;-66
2021/06/09 00:43:19;;;;;;;21.90;10.65;;;;;;;;;;5113318;28;20482;-64
2021/06/09 00:45:55;;;;;;;19.77;11.02;;;;;;;;;;5113623;28;20055;-64
2021/06/09 00:48:25;;;;;;;31.00;12.23;;;;;;;;;;5113708;28;20467;-64
2021/06/09 00:50:50;;;;;;;23.13;10.75;;;;;;;;;;5113461;28;20018;-64
2021/06/09 00:53:28;;;;;;;20.55;10.98;;;;;;;;;;5113779;28;20027;-64
2021/06/09 00:55:57;;;;;;;20.05;10.85;;;;;;;;;;5112921;28;20578;-64
2021/06/09 00:58:22;;;;;;;24.05;11.75;;;;;;;;;;5113599;28;20067;-64
2021/06/09 01:00:48;;;;;;;25.05;11.93;;;;;;;;;;5095277;28;20568;-67
2021/06/09 01:03:13;;;;;;;27.30;11.98;;;;;;;;;;5113622;28;20444;-66
2021/06/09 01:05:39;;;;;;;22.98;11.15;;;;;;;;;;5113448;28;20068;-66
2021/06/09 01:08:06;;;;;;;23.00;11.90;;;;;;;;;;5113629;28;20030;-67
2021/06/09 01:10:31;;;;;;;24.15;11.50;;;;;;;;;;5113274;28;20051;-67
2021/06/09 01:12:57;;;;;;;23.88;11.38;;;;;;;;;;5113536;28;20433;-65
2021/06/09 01:15:23;;;;;;;24.10;11.23;;;;;;;;;;5108480;28;20031;-66
2021/06/09 01:17:48;;;;;;;18.90;10.25;;;;;;;;;;5112493;28;20030;-66
2021/06/09 01:20:14;;;;;;;21.58;11.40;;;;;;;;;;5113018;28;20084;-67
2021/06/09 01:22:39;;;;;;;25.73;11.63;;;;;;;;;;5112437;28;20027;-67
2021/06/09 01:25:05;;;;;;;27.40;12.60;;;;;;;;;;5113089;28;20023;-67
2021/06/09 01:27:31;;;;;;;26.20;11.80;;;;;;;;;;5107785;28;20032;-66
2021/06/09 01:29:56;;;;;;;30.92;12.02;;;;;;;;;;5113189;28;20140;-66
2021/06/09 01:32:21;;;;;;;23.13;12.00;;;;;;;;;;5113236;28;20456;-69
2021/06/09 01:34:47;;;;;;;24.52;11.73;;;;;;;;;;5113017;28;20039;-69
2021/06/09 01:37:12;;;;;;;27.55;11.48;;;;;;;;;;5113135;28;20024;-67
2021/06/09 01:39:37;;;;;;;29.48;12.10;;;;;;;;;;5112738;28;20042;-69
2021/06/09 01:42:03;;;;;;;31.80;13.15;;;;;;;;;;5113188;28;20024;-67
2021/06/09 01:44:28;;;;;;;27.50;11.88;;;;;;;;;;5113121;28;20050;-67
2021/06/09 01:46:54;;;;;;;24.83;11.77;;;;;;;;;;5113355;28;20044;-66
2021/06/09 01:49:19;;;;;;;24.98;12.75;;;;;;;;;;5112703;28;20066;-67
2021/06/09 01:51:44;;;;;;;31.48;13.52;;;;;;;;;;5114608;28;20019;-66
2021/06/09 01:54:10;;;;;;;29.88;12.75;;;;;;;;;;5117269;28;20060;-67
2021/06/09 01:56:36;;;;;;;27.55;11.27;;;;;;;;;;5116340;28;20475;-67
2021/06/09 01:59:10;;;;;;;33.42;12.63;;;;;;;;;;5116887;28;20367;-66
2021/06/09 02:01:36;;;;;;;27.60;12.65;;;;;;;;;;5116144;28;20027;-67
2021/06/09 02:04:02;;;;;;;30.52;12.40;;;;;;;;;;5116291;28;20522;-66
2021/06/09 02:06:27;;;;;;;27.95;12.40;;;;;;;;;;5117286;28;20096;-67
2021/06/09 02:08:53;;;;;;;27.52;12.25;;;;;;;;;;5116418;28;20488;-68
2021/06/09 02:11:18;;;;;;;27.77;12.65;;;;;;;;;;5116546;28;20100;-68
2021/06/09 02:13:44;;;;;;;25.83;12.55;;;;;;;;;;5116381;28;20104;-68
2021/06/09 02:16:09;;;;;;;24.65;11.65;;;;;;;;;;5116408;28;20047;-68
2021/06/09 02:18:34;;;;;;;23.80;11.52;;;;;;;;;;5116385;28;20059;-69
2021/06/09 02:21:00;;;;;;;25.15;12.23;;;;;;;;;;5116065;28;20042;-66
2021/06/09 02:23:28;;;;;;;35.97;13.43;;;;;;;;;;5116556;28;20071;-66
2021/06/09 02:25:56;;;;;;;25.45;11.85;;;;;;;;;;5116491;28;20031;-67
2021/06/09 02:28:22;;;;;;;26.95;11.93;;;;;;;;;;5097546;28;20027;-66
2021/06/09 02:30:48;;;;;;;28.05;11.73;;;;;;;;;;5116326;28;20052;-66
2021/06/09 02:33:14;;;;;;;26.83;12.90;;;;;;;;;;5096167;28;20067;-67
2021/06/09 02:35:40;;;;;;;29.88;12.50;;;;;;;;;;5096179;28;20108;-67
2021/06/09 02:38:06;;;;;;;26.42;12.50;;;;;;;;;;5114939;28;20424;-67
2021/06/09 02:40:32;;;;;;;34.70;13.55;;;;;;;;;;5116300;28;20051;-67
2021/06/09 02:42:57;;;;;;;27.67;13.60;;;;;;;;;;5115611;28;20020;-66
2021/06/09 02:45:22;;;;;;;26.50;11.80;;;;;;;;;;5116577;28;20363;-66
2021/06/09 02:47:50;;;;;;;28.08;12.52;;;;;;;;;;5115909;28;20024;-67
2021/06/09 02:50:17;;;;;;;28.25;13.20;;;;;;;;;;5115763;28;20020;-67
2021/06/09 02:52:47;;;;;;;36.03;14.00;;;;;;;;;;5115740;28;20031;-66
2021/06/09 02:55:20;;;;;;;27.10;12.43;;;;;;;;;;5095949;28;20094;-66
2021/06/09 02:57:57;;;;;;;28.80;11.90;;;;;;;;;;5098516;28;20027;-66
2021/06/09 03:00:34;;;;;;;23.83;12.82;;;;;;;;;;5115395;28;21611;-68
2021/06/09 03:02:59;;;;;;;27.92;12.20;;;;;;;;;;5096275;28;20046;-69
2021/06/09 03:05:24;;;;;;;25.92;12.65;;;;;;;;;;5116142;28;20428;-68
2021/06/09 03:07:56;;;;;;;29.15;13.35;;;;;;;;;;5115550;28;20064;-68
2021/06/09 03:10:27;;;;;;;35.30;13.27;;;;;;;;;;5115722;28;20075;-69
2021/06/09 03:13:05;;;;;;;30.33;13.52;;;;;;;;;;5115336;28;20498;-69
2021/06/09 03:15:49;;;;;;;33.03;13.63;;;;;;;;;;5115852;28;20059;-66
2021/06/09 03:18:17;;;;;;;32.17;12.10;;;;;;;;;;5100875;28;20495;-67
2021/06/09 03:20:51;;;;;;;24.63;12.20;;;;;;;;;;5096561;28;20399;-66
2021/06/09 03:23:40;;;;;;;27.40;13.02;;;;;;;;;;5094950;28;20496;-67
2021/06/09 03:26:12;;;;;;;37.40;13.93;;;;;;;;;;5076180;28;20028;-67
2021/06/09 03:28:50;;;;;;;27.45;11.80;;;;;;;;;;5101681;28;20028;-66
2021/06/09 03:31:18;;;;;;;39.35;13.07;;;;;;;;;;5114490;28;20527;-66
2021/06/09 03:33:44;;;;;;;31.35;12.95;;;;;;;;;;5115412;28;20067;-66
2021/06/09 03:36:15;;;;;;;34.42;13.07;;;;;;;;;;5115502;28;20464;-66
2021/06/09 03:38:48;;;;;;;27.67;12.20;;;;;;;;;;5114937;28;20069;-66
2021/06/09 03:41:13;;;;;;;26.77;12.88;;;;;;;;;;5115175;28;20445;-66
2021/06/09 03:43:40;;;;;;;25.00;11.65;;;;;;;;;;5114875;28;20024;-66
2021/06/09 03:46:07;;;;;;;30.58;13.07;;;;;;;;;;5115136;28;20051;-66
2021/06/09 03:48:35;;;;;;;27.60;13.13;;;;;;;;;;5115186;28;20059;-66
2021/06/09 03:51:01;;;;;;;31.52;12.68;;;;;;;;;;5114059;28;20022;-66
2021/06/09 03:53:27;;;;;;;27.95;12.63;;;;;;;;;;5114326;28;20058;-66
2021/06/09 03:55:54;;;;;;;28.95;11.73;;;;;;;;;;5114840;28;20038;-66
2021/06/09 03:58:19;;;;;;;28.42;12.35;;;;;;;;;;5114479;28;20030;-66
2021/06/09 04:00:46;;;;;;;24.92;11.48;;;;;;;;;;5114108;28;20464;-66
2021/06/09 04:03:12;;;;;;;28.40;13.13;;;;;;;;;;5114617;28;20039;-67
2021/06/09 04:05:39;;;;;;;28.42;12.23;;;;;;;;;;5114838;28;20034;-66
2021/06/09 04:08:05;;;;;;;28.65;12.60;;;;;;;;;;5114560;28;20098;-66
2021/06/09 04:10:32;;;;;;;30.88;13.85;;;;;;;;;;5113981;28;20136;-67
2021/06/09 04:12:58;;;;;;;25.33;11.70;;;;;;;;;;5114181;28;20160;-67
2021/06/09 04:15:23;;;;;;;27.45;12.10;;;;;;;;;;5114940;28;20048;-66
2021/06/09 04:17:49;;;;;;;28.88;11.82;;;;;;;;;;5113952;28;20036;-66
2021/06/09 04:20:18;;;;;;;22.20;11.18;;;;;;;;;;5114086;28;20042;-67
2021/06/09 04:22:43;;;;;;;29.13;11.70;;;;;;;;;;5113898;28;20024;-66
2021/06/09 04:25:09;;;;;;;26.95;12.82;;;;;;;;;;5114109;28;20035;-66
2021/06/09 04:27:43;;;;;;;28.40;12.77;;;;;;;;;;5114269;28;20031;-66
2021/06/09 04:30:09;;;;;;;22.73;11.07;;;;;;;;;;5113699;28;20020;-66
2021/06/09 04:33:11;;;;;;;29.00;11.93;;;;;;;;;;5114455;28;20024;-66
2021/06/09 04:35:38;;;;;;;21.98;11.32;;;;;;;;;;5051646;28;20048;-66
2021/06/09 04:38:04;;;;;;;32.85;14.18;;;;;;;;;;5095019;28;20043;-66
2021/06/09 04:40:30;;;;;;;25.98;11.38;;;;;;;;;;5114124;28;20042;-66
2021/06/09 04:42:56;;;;;;;38.65;12.90;;;;;;;;;;5113578;28;20024;-66
2021/06/09 04:45:23;;;;;;;25.25;11.15;;;;;;;;;;5113964;28;20035;-66
2021/06/09 04:47:48;;;;;;;20.80;8.70;;;;;;;;;;5114045;28;20035;-66
2021/06/09 04:50:17;;;;;;;32.30;10.13;;;;;;;;;;5113244;28;20368;-65
2021/06/09 04:52:43;;;;;;;31.40;9.43;;;;;;;;;;5113352;28;20063;-66
2021/06/09 04:55:08;;;;;;;58.47;11.45;;;;;;;;;;5113899;28;20055;-67
2021/06/09 04:57:36;;;;;;;49.65;10.13;;;;;;;;;;5113817;28;20057;-66
2021/06/09 05:00:06;;;;;;;619.58;65.78;;;;;;;;;;5113360;28;20044;-67
2021/06/09 05:02:31;;;;;;;59.55;9.13;;;;;;;;;;5113487;28;20032;-66
2021/06/09 05:04:57;;;;;;;15.95;6.43;;;;;;;;;;5113808;28;20068;-67
2021/06/09 05:07:22;;;;;;;6.93;4.78;;;;;;;;;;5113649;28;20092;-67
2021/06/09 05:09:47;;;;;;;7.15;4.38;;;;;;;;;;5113133;28;20164;-66
2021/06/09 05:12:16;;;;;;;10.65;4.90;;;;;;;;;;5113530;28;20023;-66
2021/06/09 05:14:44;;;;;;;5.55;3.75;;;;;;;;;;5113322;28;20042;-67
2021/06/09 05:17:10;;;;;;;5.57;3.70;;;;;;;;;;5113664;28;20023;-67
2021/06/09 05:19:38;;;;;;;4.18;3.50;;;;;;;;;;5112871;28;20027;-67
2021/06/09 05:22:05;;;;;;;3.88;3.08;;;;;;;;;;5113308;28;20039;-68
2021/06/09 05:24:32;;;;;;;4.38;3.17;;;;;;;;;;5112726;28;20553;-67
2021/06/09 05:26:58;;;;;;;6.50;3.60;;;;;;;;;;5117322;28;20028;-67
2021/06/09 05:29:25;;;;;;;4.15;3.30;;;;;;;;;;5119927;28;20034;-68
2021/06/09 05:31:51;;;;;;;4.28;3.38;;;;;;;;;;5120131;28;20028;-67
2021/06/09 05:34:18;;;;;;;4.65;3.10;;;;;;;;;;5120356;28;20413;-68
2021/06/09 05:36:43;;;;;;;5.22;3.05;;;;;;;;;;5101539;28;20031;-68
2021/06/09 05:39:09;;;;;;;3.45;2.55;;;;;;;;;;5119715;28;20452;-68
2021/06/09 05:41:34;;;;;;;4.43;3.25;;;;;;;;;;5120343;28;20069;-68
2021/06/09 05:43:59;;;;;;;6.38;2.70;;;;;;;;;;5119635;28;20024;-67
2021/06/09 05:46:28;;;;;;;3.00;2.33;;;;;;;;;;5119760;28;20059;-68
2021/06/09 05:48:53;;;;;;;3.53;2.60;;;;;;;;;;5119938;28;20529;-68
2021/06/09 05:51:19;;;;;;;3.55;2.88;;;;;;;;;;5119712;28;20036;-68
2021/06/09 05:53:44;;;;;;;6.20;2.88;;;;;;;;;;5120210;28;20031;-68
2021/06/09 05:56:10;;;;;;;5.30;2.90;;;;;;;;;;5119854;28;20027;-68
2021/06/09 05:58:37;;;;;;;3.90;3.08;;;;;;;;;;5119839;28;20392;-68
2021/06/09 06:01:04;;;;;;;5.47;3.05;;;;;;;;;;5119883;28;20162;-68
2021/06/09 06:03:29;;;;;;;5.15;3.03;;;;;;;;;;5119413;28;20024;-68
2021/06/09 06:05:59;;;;;;;6.35;3.10;;;;;;;;;;5119864;28;20047;-69
2021/06/09 06:08:25;;;;;;;5.10;3.30;;;;;;;;;;5119700;28;20513;-69
2021/06/09 06:10:50;;;;;;;5.95;3.00;;;;;;;;;;5119299;28;20048;-68
2021/06/09 06:13:17;;;;;;;4.55;3.03;;;;;;;;;;5119559;28;20028;-69
2021/06/09 06:15:42;;;;;;;4.38;3.20;;;;;;;;;;5119419;28;20033;-68
2021/06/09 06:18:08;;;;;;;5.22;2.67;;;;;;;;;;5120052;28;20015;-68
2021/06/09 06:20:33;;;;;;;6.80;4.38;;;;;;;;;;5118961;28;20051;-68
2021/06/09 06:22:59;;;;;;;4.43;3.22;;;;;;;;;;5118896;28;20026;-69
2021/06/09 06:25:25;;;;;;;6.30;3.40;;;;;;;;;;5119837;28;20024;-68
2021/06/09 06:27:52;;;;;;;4.18;2.95;;;;;;;;;;5119636;28;20077;-70
2021/06/09 06:30:18;;;;;;;7.93;3.78;;;;;;;;;;5119340;28;20050;-68
2021/06/09 06:32:45;;;;;;;4.80;3.47;;;;;;;;;;5119311;28;20019;-69
2021/06/09 06:35:14;;;;;;;7.43;3.75;;;;;;;;;;5119154;28;20375;-69
2021/06/09 06:37:41;;;;;;;6.65;4.50;;;;;;;;;;5117208;28;20107;-68
2021/06/09 06:40:07;;;;;;;8.35;4.85;;;;;;;;;;5115012;28;20036;-69
2021/06/09 06:42:33;;;;;;;6.00;4.63;;;;;;;;;;5116039;28;20031;-69
2021/06/09 06:45:00;;;;;;;11.60;5.95;;;;;;;;;;5116031;28;20148;-69
2021/06/09 06:47:26;;;;;;;7.82;5.57;;;;;;;;;;5115935;28;20529;-69
2021/06/09 06:49:52;;;;;;;7.93;5.82;;;;;;;;;;5115507;28;20028;-69
2021/06/09 06:52:17;;;;;;;5.85;5.25;;;;;;;;;;5114951;28;20024;-70
2021/06/09 06:54:42;;;;;;;7.43;5.57;;;;;;;;;;5116242;28;20024;-69
2021/06/09 06:57:08;;;;;;;7.28;6.15;;;;;;;;;;5115868;28;20031;-68
2021/06/09 06:59:34;;;;;;;7.20;5.82;;;;;;;;;;5115413;28;20038;-69
2021/06/09 07:02:03;;;;;;;10.23;6.63;;;;;;;;;;5115284;28;20038;-69
2021/06/09 07:04:28;;;;;;;9.93;5.95;;;;;;;;;;5115701;28;20510;-67
2021/06/09 07:06:53;;;;;;;8.73;6.60;;;;;;;;;;5115805;28;20024;-68
2021/06/09 07:09:19;;;;;;;8.88;6.53;;;;;;;;;;5116111;28;20051;-70
2021/06/09 07:11:45;;;;;;;7.97;6.63;;;;;;;;;;5115477;28;20122;-70
2021/06/09 07:14:11;;;;;;;8.90;5.97;;;;;;;;;;5115829;28;20078;-69
2021/06/09 07:16:37;;;;;;;6.07;4.70;;;;;;;;;;5115738;28;20456;-70
2021/06/09 07:19:03;;;;;;;7.97;5.35;;;;;;;;;;5115408;28;20039;-70
2021/06/09 07:21:29;;;;;;;6.30;4.50;;;;;;;;;;5115103;28;20399;-70
2021/06/09 07:23:54;;;;;;;7.68;5.35;;;;;;;;;;5114891;28;20015;-70
2021/06/09 07:26:20;;;;;;;7.00;4.85;;;;;;;;;;5097182;28;20031;-70
2021/06/09 07:28:55;;;;;;;5.40;4.30;;;;;;;;;;5114868;28;20467;-69
2021/06/09 07:31:27;;;;;;;6.88;3.97;;;;;;;;;;5115124;28;20027;-67
2021/06/09 07:33:53;;;;;;;6.82;3.78;;;;;;;;;;5115145;28;20082;-66
2021/06/09 07:36:21;;;;;;;5.35;3.88;;;;;;;;;;5114946;28;20112;-66
2021/06/09 07:38:49;;;;;;;4.63;3.70;;;;;;;;;;5114729;28;20038;-67
2021/06/09 07:41:16;;;;;;;7.70;3.40;;;;;;;;;;5114724;28;20617;-66
2021/06/09 07:43:42;;;;;;;3.92;2.90;;;;;;;;;;5114665;28;20011;-67
2021/06/09 07:46:08;;;;;;;5.65;3.42;;;;;;;;;;5115108;28;20077;-67
2021/06/09 07:48:35;;;;;;;4.70;3.47;;;;;;;;;;5114093;27;20032;-66
2021/06/09 07:51:02;;;;;;;5.60;3.10;;;;;;;;;;5111339;28;20015;-67
2021/06/09 07:53:29;;;;;;;8.10;3.55;;;;;;;;;;5115015;28;20032;-66
2021/06/09 07:55:54;;;;;;;5.15;3.50;;;;;;;;;;5114994;28;20036;-66
2021/06/09 07:58:26;;;;;;;6.10;3.10;;;;;;;;;;5115031;28;20012;-66
2021/06/09 08:00:52;;;;;;;5.05;2.65;;;;;;;;;;5110097;28;20491;-66
2021/06/09 08:03:18;;;;;;;7.07;3.03;;;;;;;;;;5106719;28;20044;-67
2021/06/09 08:05:43;;;;;;;5.30;2.80;;;;;;;;;;5108201;28;20455;-67
2021/06/09 08:08:11;;;;;;;4.80;2.88;;;;;;;;;;5110648;28;20062;-66
2021/06/09 08:10:37;;;;;;;4.15;2.55;;;;;;;;;;5110381;28;20129;-67
2021/06/09 08:13:02;;;;;;;5.20;2.83;;;;;;;;;;5110324;28;20039;-67
2021/06/09 08:15:28;;;;;;;4.32;2.63;;;;;;;;;;5109768;28;20051;-66
2021/06/09 08:17:53;;;;;;;4.38;2.50;;;;;;;;;;5110834;28;20039;-66
2021/06/09 08:20:20;;;;;;;4.75;3.03;;;;;;;;;;5110801;28;20536;-66
2021/06/09 08:22:46;;;;;;;5.50;2.35;;;;;;;;;;5109983;28;20032;-67
2021/06/09 08:25:13;;;;;;;4.65;2.97;;;;;;;;;;5109243;28;20489;-67
2021/06/09 08:27:39;;;;;;;5.75;2.45;;;;;;;;;;5109584;28;20023;-67
2021/06/09 08:30:05;;;;;;;6.68;2.85;;;;;;;;;;5105613;28;20508;-67
2021/06/09 08:32:31;;;;;;;5.00;3.17;;;;;;;;;;5103011;28;20035;-67
2021/06/09 08:34:56;;;;;;;7.27;3.80;;;;;;;;;;5103535;28;20163;-67
2021/06/09 08:37:21;;;;;;;8.15;3.25;;;;;;;;;;5104912;28;20695;-67
2021/06/09 08:39:47;;;;;;;8.23;3.47;;;;;;;;;;5100561;28;20441;-66
2021/06/09 08:42:12;;;;;;;6.38;3.30;;;;;;;;;;5095100;28;20338;-67
2021/06/09 08:44:40;;;;;;;7.47;3.17;;;;;;;;;;5090042;28;20032;-67
2021/06/09 08:47:08;;;;;;;3.90;2.65;;;;;;;;;;5091348;28;20038;-67
2021/06/09 08:49:33;;;;;;;7.88;3.25;;;;;;;;;;5104501;28;20049;-67
2021/06/09 08:52:01;;;;;;;4.47;2.83;;;;;;;;;;5097283;28;20032;-67
2021/06/09 08:54:27;;;;;;;5.97;3.53;;;;;;;;;;5100810;28;20114;-67
2021/06/09 08:56:52;;;;;;;6.07;3.53;;;;;;;;;;5089242;28;20099;-66
2021/06/09 08:59:21;;;;;;;6.30;3.78;;;;;;;;;;5091202;28;20452;-66
2021/06/09 09:01:46;;;;;;;6.60;4.35;;;;;;;;;;5095641;28;20115;-66
2021/06/09 09:04:11;;;;;;;5.93;4.75;;;;;;;;;;5098349;28;20098;-66
2021/06/09 09:06:37;;;;;;;9.35;5.05;;;;;;;;;;5103557;28;20391;-67
2021/06/09 09:09:03;;;;;;;7.18;4.32;;;;;;;;;;5098690;28;20063;-66
2021/06/09 09:11:28;;;;;;;6.85;4.80;;;;;;;;;;5103962;28;20051;-66
2021/06/09 09:13:53;;;;;;;6.30;4.45;;;;;;;;;;5098619;28;20038;-67
2021/06/09 09:16:19;;;;;;;7.25;3.92;;;;;;;;;;5094440;28;20427;-66
2021/06/09 09:18:55;;;;;;;6.88;3.55;;;;;;;;;;5106222;28;20020;-67
2021/06/09 09:21:34;;;;;;;5.40;3.60;;;;;;;;;;5101515;28;20031;-67
2021/06/09 09:24:03;;;;;;;4.53;3.40;;;;;;;;;;5101844;28;20061;-67
2021/06/09 09:26:31;;;;;;;4.40;2.88;;;;;;;;;;5085318;28;20063;-67
2021/06/09 09:29:15;;;;;;;6.10;2.70;;;;;;;;;;5084300;28;20047;-67
2021/06/09 09:31:48;;;;;;;5.65;2.67;;;;;;;;;;5088704;28;20626;-67
2021/06/09 09:34:32;;;;;;;5.80;2.10;;;;;;;;;;5090880;28;20092;-66
2021/06/09 09:37:13;;;;;;;4.22;2.10;;;;;;;;;;5094244;28;20040;-66
2021/06/09 09:39:39;;;;;;;3.20;2.38;;;;;;;;;;5101180;28;20028;-66
2021/06/09 09:42:29;;;;;;;4.53;2.33;;;;;;;;;;5089702;28;20050;-67
2021/06/09 09:45:12;;;;;;;4.18;2.20;;;;;;;;;;5099995;28;20048;-66
2021/06/09 09:47:37;;;;;;;4.63;2.17;;;;;;;;;;5089458;28;20028;-67
2021/06/09 09:50:02;;;;;;;4.30;2.50;;;;;;;;;;5105008;28;20475;-67
2021/06/09 09:52:28;;;;;;;3.63;2.00;;;;;;;;;;5093710;28;20028;-67
2021/06/09 09:54:58;;;;;;;5.10;2.20;;;;;;;;;;5103460;28;20422;-66
2021/06/09 09:57:30;;;;;;;3.65;2.05;;;;;;;;;;5105240;28;20374;-67
2021/06/09 09:59:56;;;;;;;5.10;2.65;;;;;;;;;;5103121;28;20032;-67
2021/06/09 10:02:21;;;;;;;3.70;1.77;;;;;;;;;;5104256;28;20031;-67
2021/06/09 10:04:52;;;;;;;2.83;1.40;;;;;;;;;;5105287;28;20039;-67
2021/06/09 10:07:17;;;;;;;4.53;1.65;;;;;;;;;;5104188;28;20166;-67
2021/06/09 10:09:44;;;;;;;4.90;2.22;;;;;;;;;;5104944;28;20115;-67
2021/06/09 10:12:13;;;;;;;3.20;2.20;;;;;;;;;;5100207;28;20046;-67
2021/06/09 10:14:42;;;;;;;2.90;1.65;;;;;;;;;;5101335;28;20106;-66
2021/06/09 10:17:28;;;;;;;4.45;2.03;;;;;;;;;;5096503;28;20051;-67
2021/06/09 10:19:58;;;;;;;4.43;1.70;;;;;;;;;;5106368;28;20039;-67
2021/06/09 10:22:27;;;;;;;3.22;1.80;;;;;;;;;;5108157;28;20546;-67
2021/06/09 10:24:54;;;;;;;3.20;1.40;;;;;;;;;;5109093;28;20475;-66
2021/06/09 10:27:31;;;;;;;3.38;1.38;;;;;;;;;;5104230;28;20031;-67
2021/06/09 10:29:57;;;;;;;6.15;2.10;;;;;;;;;;5098389;28;20031;-67
2021/06/09 10:32:22;;;;;;;2.03;1.40;;;;;;;;;;5094004;28;20032;-65
2021/06/09 10:34:48;;;;;;;2.25;1.52;;;;;;;;;;5102801;28;20320;-67
2021/06/09 10:37:14;;;;;;;5.00;1.63;;;;;;;;;;5098592;28;20028;-66
2021/06/09 10:39:42;;;;;;;2.03;1.40;;;;;;;;;;5106406;28;20106;-66
2021/06/09 10:42:09;;;;;;;3.15;1.60;;;;;;;;;;5091464;28;20028;-66
2021/06/09 10:44:36;;;;;;;1.58;1.25;;;;;;;;;;5107338;28;20106;-66
2021/06/09 10:47:02;;;;;;;2.17;1.40;;;;;;;;;;5097355;28;20035;-66
2021/06/09 10:49:31;;;;;;;2.03;1.30;;;;;;;;;;5105053;28;20114;-66
2021/06/09 10:51:57;;;;;;;3.20;1.45;;;;;;;;;;5108291;28;20449;-66
2021/06/09 10:54:24;;;;;;;2.00;1.33;;;;;;;;;;5102937;28;20031;-66
2021/06/09 10:56:51;;;;;;;2.15;1.40;;;;;;;;;;5099760;28;20036;-66
2021/06/09 10:59:22;;;;;;;2.38;1.40;;;;;;;;;;5104050;28;20100;-66
2021/06/09 11:01:48;;;;;;;10.15;1.55;;;;;;;;;;5098372;28;20032;-66
2021/06/09 11:04:14;;;;;;;2.05;1.13;;;;;;;;;;5098187;28;20047;-66
2021/06/09 11:06:42;;;;;;;2.88;1.92;;;;;;;;;;5098061;28;20020;-66
2021/06/09 11:09:24;;;;;;;4.15;1.85;;;;;;;;;;5088846;28;20048;-66
2021/06/09 11:12:08;;;;;;;2.80;1.70;;;;;;;;;;5104294;28;20040;-66
2021/06/09 11:14:42;;;;;;;2.03;1.50;;;;;;;;;;5101598;28;20032;-65
2021/06/09 11:17:08;;;;;;;4.78;2.00;;;;;;;;;;5087100;28;20036;-66
2021/06/09 11:19:37;;;;;;;2.20;1.52;;;;;;;;;;5104939;28;20480;-66
2021/06/09 11:22:16;;;;;;;2.10;1.33;;;;;;;;;;5100758;28;20051;-66
2021/06/09 11:25:01;;;;;;;3.90;1.40;;;;;;;;;;5101083;28;20034;-66
2021/06/09 11:27:27;;;;;;;4.13;1.40;;;;;;;;;;5105626;28;20023;-66
2021/06/09 11:29:52;;;;;;;2.30;1.15;;;;;;;;;;5094780;28;20023;-66
2021/06/09 11:32:19;;;;;;;2.90;1.00;;;;;;;;;;5106585;28;20039;-65
2021/06/09 11:34:53;;;;;;;2.67;0.98;;;;;;;;;;5102214;28;20050;-65
2021/06/09 11:37:19;;;;;;;6.55;0.98;;;;;;;;;;5100595;28;20031;-66
2021/06/09 11:39:57;;;;;;;2.08;1.08;;;;;;;;;;5107338;28;20035;-66
2021/06/09 11:42:22;;;;;;;6.00;1.30;;;;;;;;;;5107448;28;20103;-65
2021/06/09 11:44:47;;;;;;;1.58;0.70;;;;;;;;;;5107462;28;20114;-65
2021/06/09 11:47:17;;;;;;;0.90;0.80;;;;;;;;;;5107323;28;20119;-66
2021/06/09 11:49:42;;;;;;;1.48;1.00;;;;;;;;;;5102413;28;20106;-66
2021/06/09 11:52:08;;;;;;;4.65;1.10;;;;;;;;;;5092243;28;20046;-66
2021/06/09 11:54:33;;;;;;;1.40;0.95;;;;;;;;;;5100468;28;20023;-65
2021/06/09 11:57:02;;;;;;;2.17;1.00;;;;;;;;;;5095479;28;20023;-65
2021/06/09 11:59:33;;;;;;;1.42;0.98;;;;;;;;;;5101191;28;20036;-66
2021/06/09 12:02:01;;;;;;;1.05;0.80;;;;;;;;;;5103841;28;20027;-65
2021/06/09 12:04:30;;;;;;;3.03;1.17;;;;;;;;;;5092815;28;20123;-64
2021/06/09 12:07:05;;;;;;;1.00;0.90;;;;;;;;;;5098114;28;20085;-66
2021/06/09 12:09:31;;;;;;;1.48;0.98;;;;;;;;;;5102330;28;20111;-66
2021/06/09 12:11:57;;;;;;;3.13;1.15;;;;;;;;;;5105475;28;20101;-65
2021/06/09 12:14:23;;;;;;;1.80;1.25;;;;;;;;;;5092994;28;20770;-66
2021/06/09 12:16:49;;;;;;;1.00;0.85;;;;;;;;;;5088845;28;20039;-66
2021/06/09 12:19:31;;;;;;;0.98;0.75;;;;;;;;;;5107531;28;20077;-66
2021/06/09 12:22:07;;;;;;;2.25;1.08;;;;;;;;;;5106402;28;20039;-65
2021/06/09 12:24:33;;;;;;;2.45;1.33;;;;;;;;;;5090364;28;20043;-66
2021/06/09 12:27:00;;;;;;;1.48;0.88;;;;;;;;;;5096773;28;20034;-66
2021/06/09 12:29:28;;;;;;;2.28;1.15;;;;;;;;;;5105479;28;20080;-66
2021/06/09 12:31:54;;;;;;;2.40;1.30;;;;;;;;;;5106312;28;20031;-66
2021/06/09 12:34:20;;;;;;;2.42;1.30;;;;;;;;;;5103390;28;20043;-66
2021/06/09 12:36:52;;;;;;;3.70;1.67;;;;;;;;;;5105561;28;20514;-66
2021/06/09 12:39:18;;;;;;;2.10;1.10;;;;;;;;;;5106506;28;20027;-65
2021/06/09 12:41:44;;;;;;;2.28;1.35;;;;;;;;;;5102710;28;20373;-66
2021/06/09 12:44:13;;;;;;;6.43;1.17;;;;;;;;;;5106769;28;20039;-66
2021/06/09 12:46:38;;;;;;;3.80;1.40;;;;;;;;;;5085472;28;20055;-66
2021/06/09 12:49:04;;;;;;;1.13;0.93;;;;;;;;;;5099179;28;20066;-66
2021/06/09 12:51:29;;;;;;;2.28;1.30;;;;;;;;;;5106868;28;20086;-66
2021/06/09 12:53:54;;;;;;;1.83;1.10;;;;;;;;;;5101211;28;20019;-65
2021/06/09 12:56:21;;;;;;;3.25;1.30;;;;;;;;;;5104989;28;20133;-66
2021/06/09 12:58:50;;;;;;;4.32;1.23;;;;;;;;;;5106470;28;20099;-66
2021/06/09 13:01:15;;;;;;;4.65;1.40;;;;;;;;;;5106081;28;20134;-66
2021/06/09 13:03:43;;;;;;;3.00;1.20;;;;;;;;;;5093401;28;20609;-66
2021/06/09 13:06:10;;;;;;;4.88;1.58;;;;;;;;;;5105478;28;20507;-66
2021/06/09 13:08:36;;;;;;;2.95;1.70;;;;;;;;;;5106682;28;20027;-66
2021/06/09 13:11:07;;;;;;;3.63;1.38;;;;;;;;;;5105392;28;20535;-65
2021/06/09 13:13:32;;;;;;;7.38;1.48;;;;;;;;;;5105912;28;20031;-65
2021/06/09 13:15:59;;;;;;;1.90;1.27;;;;;;;;;;5106264;28;20374;-66
2021/06/09 13:18:34;;;;;;;3.80;1.60;;;;;;;;;;5105898;28;20023;-66
2021/06/09 13:21:29;;;;;;;2.53;1.27;;;;;;;;;;5105547;28;20031;-66
2021/06/09 13:23:55;;;;;;;2.13;1.30;;;;;;;;;;5080334;28;20040;-66
2021/06/09 13:26:21;;;;;;;5.05;1.30;;;;;;;;;;5097542;28;20031;-66
2021/06/09 13:28:46;;;;;;;1.65;1.20;;;;;;;;;;5103502;28;20097;-65
2021/06/09 13:31:12;;;;;;;2.58;1.30;;;;;;;;;;5092399;28;20047;-66
2021/06/09 13:33:39;;;;;;;2.45;1.48;;;;;;;;;;5100054;28;20173;-66
2021/06/09 13:36:05;;;;;;;2.97;1.50;;;;;;;;;;5099984;28;20027;-65
2021/06/09 13:38:33;;;;;;;2.78;1.40;;;;;;;;;;5105811;28;20548;-64
2021/06/09 13:40:59;;;;;;;3.30;1.38;;;;;;;;;;5091391;28;20035;-65
2021/06/09 13:43:25;;;;;;;4.05;1.38;;;;;;;;;;5093288;28;20365;-66
2021/06/09 13:45:53;;;;;;;6.80;1.90;;;;;;;;;;5090781;28;20032;-65
2021/06/09 13:48:21;;;;;;;2.50;1.70;;;;;;;;;;5095721;28;20114;-66
2021/06/09 13:50:58;;;;;;;6.30;2.05;;;;;;;;;;5093249;28;20023;-65
2021/06/09 13:53:23;;;;;;;7.90;2.05;;;;;;;;;;5108125;28;20035;-66
2021/06/09 13:55:49;;;;;;;7.93;1.52;;;;;;;;;;5101743;28;20031;-65
2021/06/09 13:58:17;;;;;;;5.07;1.65;;;;;;;;;;5097825;28;20035;-65
2021/06/09 14:00:42;;;;;;;5.00;1.65;;;;;;;;;;5096451;28;20464;-66
2021/06/09 14:03:19;;;;;;;1.23;1.05;;;;;;;;;;5096580;28;20036;-66
2021/06/09 14:05:45;;;;;;;1.88;1.30;;;;;;;;;;5102934;28;20035;-66
2021/06/09 14:08:10;;;;;;;5.32;1.48;;;;;;;;;;5098061;28;20032;-64
2021/06/09 14:10:43;;;;;;;5.18;1.55;;;;;;;;;;5109586;28;20097;-66
2021/06/09 14:13:17;;;;;;;3.95;1.40;;;;;;;;;;5087980;28;20381;-65
2021/06/09 14:15:48;;;;;;;3.85;1.67;;;;;;;;;;5090501;28;20040;-65
2021/06/09 14:18:13;;;;;;;3.10;1.30;;;;;;;;;;5093941;28;20122;-65
2021/06/09 14:20:43;;;;;;;3.70;1.30;;;;;;;;;;5103023;28;20118;-65
2021/06/09 14:23:08;;;;;;;2.20;1.20;;;;;;;;;;5105414;28;20110;-66
2021/06/09 14:25:41;;;;;;;3.33;1.35;;;;;;;;;;5096391;28;20432;-65
2021/06/09 14:28:07;;;;;;;7.32;1.27;;;;;;;;;;5093604;28;20053;-65
2021/06/09 14:30:44;;;;;;;3.35;1.10;;;;;;;;;;5110176;28;20530;-66
2021/06/09 14:38:39;;;;;;;2.80;1.00;;;;;;;;;;5111861;28;20523;-66
2021/06/09 14:41:15;;;;;;;1.58;1.10;;;;;;;;;;5091765;28;20040;-66
2021/06/09 14:44:06;;;;;;;2.42;1.00;;;;;;;;;;5105556;28;20028;-65